Central Sierra Snow Lab Weather observations

Data are for 10 minute period ending at time listed.
 Day   Time    Incoming  Reflected   Ave.   Ave.    Ave.    Vector  Max.    Ave.    Total    Snow   
  of    of      Solar     Solar      Air    Rel.    Wind    Wind    Wind   Baro.   Precip.   Depth  
Year   Day     Radiation Radiation   Temp.  Humid.  Speed   Dir.    Gust   Press.                   
2016   (PST)    Kw/m2     Kw/m2       F       %      mph     deg.    mph     mb.     in.      in.   
----------------------------------------------------------------------------------------------------
 337   22:40    0.000     999.000     25.1     43     3.0      40     8.7   794.80   17.11   18.00  
 337   22:50    0.000     999.000     25.3     44     2.6      42     7.1   794.80   17.12   17.90  
 337   23:00    0.000     999.000     25.3     45     2.8      37     8.2   794.90   17.12   18.00  
 337   23:10    0.000     999.000     25.5     45     2.1      43     6.7   794.90   17.11   17.80  
 337   23:20    0.000     999.000     25.0     48     2.5      50     8.8   795.10   17.11   17.80  
 337   23:30    0.000     999.000     25.0     47     2.4      62    10.3   795.10   17.12   17.70  
 337   23:40    0.000     999.000     24.8     47     1.3      26     4.8   795.20   17.12   17.80  
 337   23:50    0.000     999.000     24.1     50     1.9      49     8.6   795.10   17.12   17.80  
 338    0:00    0.000     999.000     25.0     46     2.3      83     6.1   795.10   17.12   17.90  
 338    0:10    0.000     999.000     25.2     48     1.7      89     6.4   795.10   17.12   17.70  
 338    0:20    0.000     999.000     25.8     47     1.9     103     4.4   795.10   17.11   17.80  
 338    0:30    0.000     999.000     26.0     48     1.2      92     4.9   795.10   17.12   17.80  
 338    0:40    0.000     999.000     26.9     50     1.9     121     4.9   795.20   17.12   17.70  
 338    0:50    0.000     999.000     27.4     52     1.3     122     3.2   795.20   17.12   17.70  
 338    1:00    0.000     999.000     27.4     53     1.1     165     4.7   795.30   17.11   17.70  
 338    1:10    0.000     999.000     27.1     58     1.2      30     3.2   795.40   17.11   17.80  
 338    1:20    0.000     999.000     26.6     61     0.8      67     4.9   795.50   17.11   17.60  
 338    1:30    0.000     999.000     26.3     61     0.5     293     3.5   795.60   17.11   17.60  
 338    1:40    0.000     999.000     25.7     63     1.1     356     3.4   795.50   17.11   17.70  
 338    1:50    0.000     999.000     25.5     64     0.7     359     2.8   795.50   17.11   17.70  
 338    2:00    0.000     999.000     25.1     67     0.6      17     3.8   795.50   17.12   17.80  
 338    2:10    0.000     999.000     24.7     69     0.6      21     2.9   795.60   17.12   17.80  
 338    2:20    0.000     999.000     24.5     72     1.2      47     4.1   795.60   17.11   17.80  
 338    2:30    0.000     999.000     23.9     75     2.4      26     4.4   795.50   17.11   17.70  
 338    2:40    0.000     999.000     24.3     76     2.4      31     5.0   795.60   17.11   17.70  
 338    2:50    0.000     999.000     24.5     77     3.2      24     4.5   795.60   17.11   17.60  
 338    3:00    0.000     999.000     24.2     80     2.7      34     4.6   795.60   17.11   17.80  
 338    3:10    0.000     999.000     24.1     81     2.8      31     5.0   795.50   17.12   17.60  
 338    3:20    0.000     999.000     24.0     82     3.0      30     4.9   795.50   17.11   17.60  
 338    3:30    0.000     999.000     23.8     83     3.1      33     5.0   795.40   17.11   17.70  
 338    3:40    0.000     999.000     24.0     82     2.5      35     5.6   795.40   17.11   17.70  
 338    3:50    0.000     999.000     23.8     85     2.5      38     5.5   795.40   17.11   17.70  
 338    4:00    0.000     999.000     23.8     86     3.1      31     5.7   795.40   17.11   17.60  
 338    4:10    0.000     999.000     23.8     86     3.3      35     5.5   795.50   17.11   17.60  
 338    4:20    0.000     999.000     23.8     86     3.4      32     5.8   795.50   17.11   17.70  
 338    4:30    0.000     999.000     23.9     88     3.2      34     6.1   795.60   17.11   17.70  
 338    4:40    0.000     999.000     24.4     88     3.5      35     6.5   795.70   17.11   17.60  
 338    4:50    0.000     999.000     24.6     89     3.3      37     6.6   795.70   17.10   17.70  
 338    5:00    0.000     999.000     24.8     90     3.3      36     6.8   795.80   17.11   17.70  
 338    5:10    0.000     999.000     25.0     90     4.2      29     6.5   795.70   17.11   17.60  
 338    5:20    0.000     999.000     25.2     89     3.5      36     6.6   795.80   17.11   17.70  
 338    5:30    0.000     999.000     25.3     92     4.1      34     6.0   795.80   17.11   17.60  
 338    5:40    0.000     999.000     25.5     91     3.5      31     6.1   795.90   17.11   17.70  
 338    5:50    0.000     999.000     25.7     91     2.8      39     5.0   795.90   17.11   17.70  
 338    6:00    0.000     999.000     25.9     90     3.1      35     5.5   795.90   17.11   17.70  
 338    6:10    0.000     999.000     26.4     90     2.3      37     4.6   796.10   17.11   17.70  
 338    6:20    0.000     999.000     27.3     89     1.9      57     3.9   796.10   17.11   17.70  
 338    6:30    0.000     999.000     27.3     88     2.6      33     4.6   796.20   17.10   17.60  
 338    6:40    0.000     999.000     27.4     88     2.3      38     4.6   796.30   17.11   17.50  
 338    6:50    0.000     999.000     27.7     86     2.0      38     3.9   796.30   17.11   17.60  
 338    7:00    0.001     999.000     27.4     87     1.9      48     4.2   796.40   17.11   17.60  
 338    7:10    0.002     999.000     27.6     85     2.1      53     4.5   796.40   17.11   17.60  
 338    7:20    0.004     999.000     27.7     84     1.8      29     4.8   796.50   17.11   17.50  
 338    7:30    0.006     999.000     27.7     82     1.9      38     3.8   796.50   17.11   17.50  
 338    7:40    0.008     999.000     28.1     80     1.9      61     4.7   796.60   17.10   17.60  
 338    7:50    0.010     999.000     29.1     76     2.1      48     7.1   796.50   17.11   17.60  
 338    8:00    0.011     999.000     28.7     76     2.3      32     6.6   796.70   17.11   17.60  
 338    8:10    0.013     999.000     29.2     74     2.8      22     5.5   796.80   17.11   17.60  
 338    8:20    0.015     999.000     29.9     73     2.7      45     5.2   796.80   17.11   17.60  
 338    8:30    0.038     999.000     29.9     74     2.6      36     5.3   796.70   17.11   17.60  
 338    8:40    0.020     999.000     30.6     72     2.1      23     5.5   796.80   17.11   17.50  
 338    8:50    0.023     999.000     32.6     66     2.2      24     5.9   796.90   17.11   17.40  
 338    9:00    0.035     999.000     34.1     61     1.7      33     5.8   797.00   17.11   17.50  
 338    9:10    0.176     999.000     35.9     56     1.6      37     4.1   797.10   17.13   17.40  
 338    9:20    0.300     999.000     38.0     50     1.4      43     4.2   797.20   17.11   17.10  
 338    9:30    0.323     999.000     39.4     47     1.4      70     3.6   797.30   17.12   16.60  
 338    9:40    0.345     999.000     40.5     45     1.2      41     3.4   797.40   17.11   16.40  
 338    9:50    0.365     999.000     42.2     43     0.8      22     2.7   797.30   17.11   16.20  
 338   10:00    0.384     999.000     43.7     40     1.0     321     3.4   797.40   17.12   15.90  
 338   10:10    0.402     999.000     45.1     38     0.7      67     2.2   797.40   17.11   15.60  
 338   10:20    0.419     999.000     44.9     38     1.0     144     2.5   797.40   17.11   15.60  
 338   10:30    0.435     999.000     46.3     33     1.9     142     4.0   797.30   17.11   15.40  
 338   10:40    0.450     999.000     45.9     32     2.1     130     3.8   797.30   17.11   15.10  
 338   10:50    0.459     999.000     45.9     30     3.3     138     7.8   797.40   17.11   15.60  
 338   11:00    0.474     999.000     45.3     32     3.7     107     9.4   797.30   17.11   15.50  
 338   11:10    0.460     999.000     45.3     34     2.9      93     8.3   797.20   17.11   15.50  
 338   11:20    0.487     999.000     46.1     33     3.6      89     7.4   797.10   17.10   15.50  
 338   11:30    0.494     999.000     46.9     34     2.4      68     6.0   797.00   17.11   15.80  
 338   11:40    0.498     999.000     47.7     32     3.3      94     9.8   796.90   17.11   15.60  
 338   11:50    0.501     999.000     47.4     34     3.2      80     7.9   796.90   17.10   15.60  
 338   12:00    0.501     999.000     47.5     33     3.2      88     7.5   796.70   17.10   15.50  
 338   12:10    0.502     999.000     48.1     35     2.1      48     5.1   796.60   17.10   15.20  
 338   12:20    0.499     999.000     49.6     33     1.9     118     7.2   796.60   17.11   15.30  
 338   12:30    0.497     999.000     48.8     32     2.8     138     6.0   796.50   17.11   15.50  
 338   12:40    0.488     999.000     48.6     32     2.3     123     6.1   796.40   17.11   15.70  
 338   12:50    0.484     999.000     49.3     30     2.7     147     7.0   796.30   17.10   15.70  
 338   13:00    0.475     999.000     48.9     33     2.7     137     7.7   796.30   17.10   15.60  
 338   13:10    0.466     999.000     48.6     31     2.6     135     4.7   796.20   17.11   15.50  
 338   13:20    0.442     999.000     49.2     30     2.6     186     6.3   796.20   17.10   15.50  
 338   13:30    0.425     999.000     48.4     32     2.3     168     5.9   796.20   17.10   15.30  
 338   13:40    0.421     999.000     47.8     33     2.8     164     7.4   796.10   17.10   15.20  
 338   13:50    0.419     999.000     47.6     31     3.0     134     6.3   796.10   17.11   15.40  
 338   14:00    0.242     999.000     48.1     30     2.4     136     6.5   796.20   17.11   15.50  
 338   14:10    0.343     999.000     47.9     31     1.8     136     7.2   796.10   17.11   15.70  
 338   14:20    0.331     999.000     48.7     29     1.4     130     4.8   796.10   17.11   15.90  
 338   14:30    0.083     999.000     47.1     32     2.9     125     8.7   796.00   17.10   16.00  
 338   14:40    0.074     999.000     46.3     34     2.5     130     9.0   796.10   17.10   16.10  
 338   14:50    0.030     999.000     45.1     36     1.5     133     4.2   796.20   17.10   16.20  
 338   15:00    0.027     999.000     44.7     36     2.2      97     6.8   796.20   17.10   16.40  
 338   15:10    0.025     999.000     44.9     37     2.2      94     5.4   796.20   17.10   30.10  
 338   15:20    0.021     999.000     43.5     42     2.6     101     7.4   796.20   17.10   52.30  
 338   15:30    0.020     999.000     43.7     37     3.1     104     7.9   796.20   17.10   16.60  
 338   15:40    0.019     999.000     43.7     39     2.1      97     7.1   796.10   17.12   16.50  
 338   15:50    0.017     999.000     42.8     43     1.8      64     6.1   796.10   17.10   16.60  
 338   16:00    0.015     999.000     42.2     45     2.4      60     8.7   796.10   17.10   16.50  
 338   16:10    0.013     999.000     41.0     48     2.0      60     5.9   796.00   17.10   16.50  
 338   16:20    0.010     999.000     39.9     53     2.2      50     4.7   795.90   17.10   16.50  
 338   16:30    0.006     999.000     38.8     54     1.6      56     6.1   795.90   17.10   16.60  
 338   16:40    0.004     999.000     38.3     54     1.0      43     2.8   795.90   17.10   16.40  
 338   16:50    0.002     999.000     37.4     60     2.3      22     5.5   795.90   17.10   16.50  
 338   17:00    0.001     999.000     36.3     61     2.1      14     4.2   795.90   17.10   16.50  
 338   17:10    0.000     999.000     35.1     64     2.2      67     3.4   796.00   17.11   16.50  
 338   17:20    0.000     999.000     36.6     55     2.5      83     5.6   796.00   17.09   16.60  
 338   17:30    0.000     999.000     37.2     54     2.2      77     3.9   796.00   17.10   16.50  
 338   17:40    0.000     999.000     35.8     59     2.1      60     3.4   796.00   17.11   16.50  
 338   17:50    0.000     999.000     35.0     63     2.3      48     4.0   796.10   17.08   16.50  
 338   18:00    0.000     999.000     34.5     65     2.7      61     6.2   796.00   17.11   16.50  
 338   18:10    0.000     999.000     35.0     63     2.5      51     4.9   796.00   17.10   16.50  
 338   18:20    0.000     999.000     34.8     63     3.5      32     6.0   796.00   17.10   16.40  
 338   18:30    0.000     999.000     33.7     65     3.2      35     5.5   795.90   17.09   16.30  
 338   18:40    0.000     999.000     32.8     67     3.8      32     6.0   795.90   17.10   16.30  
 338   18:50    0.000     999.000     31.9     71     2.4      58     4.6   795.90   17.10   16.30  
 338   19:00    0.000     999.000     32.7     65     2.7      42     6.2   795.90   17.09   16.30  
 338   19:10    0.000     999.000     34.3     59     2.2      46     5.5   795.90   17.11   16.40  
 338   19:20    0.000     999.000     33.7     62     2.2      50     4.4   796.00   17.11   16.30  
 338   19:30    0.000     999.000     33.6     59     2.1      48     4.1   796.00   17.08   16.40  
 338   19:40    0.000     999.000     33.1     61     1.7      56     3.1   796.00   17.11   16.50  
 338   19:50    0.000     999.000     32.7     62     2.0      69     3.6   795.90   17.09   16.40  
 338   20:00    0.000     999.000     32.5     63     1.7      62     2.8   795.90   17.08   16.30  
 338   20:10    0.000     999.000     32.5     60     1.7      78     2.7   796.00   17.11   16.40  
 338   20:20    0.000     999.000     32.4     56     2.1      57     4.6   796.10   17.10   16.50  
 338   20:30    0.000     999.000     31.7     59     2.0      31     3.6   796.00   17.10   16.30  
 338   20:40    0.000     999.000     31.0     64     2.9      29     4.5   796.10   17.11   16.40  
 338   20:50    0.000     999.000     30.5     64     3.6      28     4.7   796.10   17.09   16.40  
 338   21:00    0.000     999.000     30.0     68     3.1      33     4.7   796.20   17.11   16.20  
 338   21:10    0.000     999.000     29.6     69     2.5      34     4.0   796.20   17.10   16.30  
 338   21:20    0.000     999.000     29.3     69     2.8      34     4.7   796.00   17.11   16.50  
 338   21:30    0.000     999.000     29.2     66     3.7      27     6.3   795.90   17.10   16.40  
 338   21:40    0.000     999.000     29.1     67     2.7      32     5.5   795.90   17.10   16.40  
 338   21:50    0.000     999.000     28.4     68     1.1      46     2.1   795.80   17.10   16.50  
 338   22:00    0.000     999.000     28.1     68     2.0      25     3.3   795.80   17.11   16.50  
 338   22:10    0.000     999.000     28.3     63     1.1      33     2.5   795.90   17.11   16.50  
 338   22:20    0.000     999.000     28.3     67     1.5      33     4.1   795.90   17.10   16.50  
 338   22:30    0.000     999.000     28.4     68     2.6      36     4.8   795.80   17.11   16.40  

Return to Central Sierra Snow Lab graphs page.


Western Regional Climate Center,wrcc@dri.edu